sensor_id;sensor_type;location;lat;lon;timestamp;P1;durP1;ratioP1;P2;durP2;ratioP2
8098;SDS011;4092;47.876;9.372;2022-07-23T00:01:23;7.17;;;4.13;;
8098;SDS011;4092;47.876;9.372;2022-07-23T00:03:52;11.23;;;4.30;;
8098;SDS011;4092;47.876;9.372;2022-07-23T00:06:20;7.27;;;4.33;;
8098;SDS011;4092;47.876;9.372;2022-07-23T00:08:47;4.67;;;3.80;;
8098;SDS011;4092;47.876;9.372;2022-07-23T00:11:15;6.03;;;5.03;;
8098;SDS011;4092;47.876;9.372;2022-07-23T00:13:42;4.80;;;4.30;;
8098;SDS011;4092;47.876;9.372;2022-07-23T00:16:09;18.33;;;4.70;;
8098;SDS011;4092;47.876;9.372;2022-07-23T00:18:37;6.17;;;4.83;;
8098;SDS011;4092;47.876;9.372;2022-07-23T00:21:04;7.03;;;5.30;;
8098;SDS011;4092;47.876;9.372;2022-07-23T00:23:32;6.93;;;5.37;;
8098;SDS011;4092;47.876;9.372;2022-07-23T00:25:59;5.00;;;4.27;;
8098;SDS011;4092;47.876;9.372;2022-07-23T00:28:26;7.13;;;5.00;;
8098;SDS011;4092;47.876;9.372;2022-07-23T00:30:53;7.87;;;4.90;;
8098;SDS011;4092;47.876;9.372;2022-07-23T00:33:20;8.50;;;4.63;;
8098;SDS011;4092;47.876;9.372;2022-07-23T00:35:48;7.37;;;4.97;;
8098;SDS011;4092;47.876;9.372;2022-07-23T00:38:15;5.17;;;4.23;;
8098;SDS011;4092;47.876;9.372;2022-07-23T00:40:42;11.80;;;4.97;;
8098;SDS011;4092;47.876;9.372;2022-07-23T00:43:09;8.03;;;5.27;;
8098;SDS011;4092;47.876;9.372;2022-07-23T00:45:37;6.30;;;3.80;;
8098;SDS011;4092;47.876;9.372;2022-07-23T00:48:04;7.67;;;5.00;;
8098;SDS011;4092;47.876;9.372;2022-07-23T00:50:31;4.93;;;4.07;;
8098;SDS011;4092;47.876;9.372;2022-07-23T00:52:59;10.57;;;5.07;;
8098;SDS011;4092;47.876;9.372;2022-07-23T00:55:27;8.10;;;5.47;;
8098;SDS011;4092;47.876;9.372;2022-07-23T00:57:54;8.23;;;5.00;;
8098;SDS011;4092;47.876;9.372;2022-07-23T01:00:22;8.47;;;5.30;;
8098;SDS011;4092;47.876;9.372;2022-07-23T01:02:49;9.60;;;6.03;;
8098;SDS011;4092;47.876;9.372;2022-07-23T01:05:16;7.10;;;5.30;;
8098;SDS011;4092;47.876;9.372;2022-07-23T01:07:47;8.60;;;5.47;;
8098;SDS011;4092;47.876;9.372;2022-07-23T01:10:15;7.67;;;5.50;;
8098;SDS011;4092;47.876;9.372;2022-07-23T01:12:58;5.87;;;4.00;;
8098;SDS011;4092;47.876;9.372;2022-07-23T01:15:25;5.37;;;4.30;;
8098;SDS011;4092;47.876;9.372;2022-07-23T01:17:53;7.57;;;5.10;;
8098;SDS011;4092;47.876;9.372;2022-07-23T01:20:20;6.47;;;4.67;;
8098;SDS011;4092;47.876;9.372;2022-07-23T01:22:49;5.33;;;4.17;;
8098;SDS011;4092;47.876;9.372;2022-07-23T01:25:16;5.50;;;4.30;;
8098;SDS011;4092;47.876;9.372;2022-07-23T01:27:44;7.20;;;5.23;;
8098;SDS011;4092;47.876;9.372;2022-07-23T01:30:12;5.67;;;4.50;;
8098;SDS011;4092;47.876;9.372;2022-07-23T01:32:39;5.70;;;4.80;;
8098;SDS011;4092;47.876;9.372;2022-07-23T01:35:07;10.17;;;4.93;;
8098;SDS011;4092;47.876;9.372;2022-07-23T01:37:34;6.73;;;4.67;;
8098;SDS011;4092;47.876;9.372;2022-07-23T01:40:04;6.07;;;3.80;;
8098;SDS011;4092;47.876;9.372;2022-07-23T01:42:32;7.57;;;4.50;;
8098;SDS011;4092;47.876;9.372;2022-07-23T01:45:03;5.10;;;4.43;;
8098;SDS011;4092;47.876;9.372;2022-07-23T01:47:30;4.37;;;3.93;;
8098;SDS011;4092;47.876;9.372;2022-07-23T01:49:57;9.10;;;4.67;;
8098;SDS011;4092;47.876;9.372;2022-07-23T01:52:25;8.80;;;4.50;;
8098;SDS011;4092;47.876;9.372;2022-07-23T01:54:52;6.93;;;4.60;;
8098;SDS011;4092;47.876;9.372;2022-07-23T01:57:20;6.13;;;4.27;;
8098;SDS011;4092;47.876;9.372;2022-07-23T01:59:47;6.57;;;4.57;;
8098;SDS011;4092;47.876;9.372;2022-07-23T02:02:14;4.50;;;3.20;;
8098;SDS011;4092;47.876;9.372;2022-07-23T02:04:41;6.10;;;4.20;;
8098;SDS011;4092;47.876;9.372;2022-07-23T02:07:08;7.60;;;4.90;;
8098;SDS011;4092;47.876;9.372;2022-07-23T02:09:35;10.77;;;4.20;;
8098;SDS011;4092;47.876;9.372;2022-07-23T02:12:02;7.23;;;5.23;;
8098;SDS011;4092;47.876;9.372;2022-07-23T02:14:31;6.57;;;5.00;;
8098;SDS011;4092;47.876;9.372;2022-07-23T02:16:58;6.07;;;4.70;;
8098;SDS011;4092;47.876;9.372;2022-07-23T02:19:25;5.87;;;4.10;;
8098;SDS011;4092;47.876;9.372;2022-07-23T02:21:53;7.27;;;4.27;;
8098;SDS011;4092;47.876;9.372;2022-07-23T02:24:20;8.30;;;4.90;;
8098;SDS011;4092;47.876;9.372;2022-07-23T02:26:47;9.27;;;4.00;;
8098;SDS011;4092;47.876;9.372;2022-07-23T02:29:15;6.73;;;4.43;;
8098;SDS011;4092;47.876;9.372;2022-07-23T02:31:43;8.40;;;5.00;;
8098;SDS011;4092;47.876;9.372;2022-07-23T02:34:11;6.07;;;4.37;;
8098;SDS011;4092;47.876;9.372;2022-07-23T02:36:38;8.23;;;4.00;;
8098;SDS011;4092;47.876;9.372;2022-07-23T02:39:05;5.60;;;4.20;;
8098;SDS011;4092;47.876;9.372;2022-07-23T02:41:33;6.00;;;5.30;;
8098;SDS011;4092;47.876;9.372;2022-07-23T02:44:00;6.00;;;4.67;;
8098;SDS011;4092;47.876;9.372;2022-07-23T02:46:27;7.40;;;4.83;;
8098;SDS011;4092;47.876;9.372;2022-07-23T02:48:55;6.73;;;3.83;;
8098;SDS011;4092;47.876;9.372;2022-07-23T02:51:22;6.27;;;3.43;;
8098;SDS011;4092;47.876;9.372;2022-07-23T02:53:49;4.93;;;3.93;;
8098;SDS011;4092;47.876;9.372;2022-07-23T02:56:16;5.13;;;4.40;;
8098;SDS011;4092;47.876;9.372;2022-07-23T02:58:43;4.53;;;4.03;;
8098;SDS011;4092;47.876;9.372;2022-07-23T03:01:10;6.00;;;4.87;;
8098;SDS011;4092;47.876;9.372;2022-07-23T03:03:37;5.33;;;4.00;;
8098;SDS011;4092;47.876;9.372;2022-07-23T03:06:06;5.20;;;3.90;;
8098;SDS011;4092;47.876;9.372;2022-07-23T03:08:33;6.20;;;4.20;;
8098;SDS011;4092;47.876;9.372;2022-07-23T03:11:00;5.90;;;4.00;;
8098;SDS011;4092;47.876;9.372;2022-07-23T03:13:27;6.00;;;4.27;;
8098;SDS011;4092;47.876;9.372;2022-07-23T03:15:54;7.17;;;4.50;;
8098;SDS011;4092;47.876;9.372;2022-07-23T03:18:21;6.67;;;5.20;;
8098;SDS011;4092;47.876;9.372;2022-07-23T03:20:49;5.17;;;3.80;;
8098;SDS011;4092;47.876;9.372;2022-07-23T03:23:17;6.73;;;4.37;;
8098;SDS011;4092;47.876;9.372;2022-07-23T03:25:44;6.10;;;4.17;;
8098;SDS011;4092;47.876;9.372;2022-07-23T03:28:13;5.70;;;3.57;;
8098;SDS011;4092;47.876;9.372;2022-07-23T03:30:40;6.07;;;4.00;;
8098;SDS011;4092;47.876;9.372;2022-07-23T03:33:08;8.43;;;3.70;;
8098;SDS011;4092;47.876;9.372;2022-07-23T03:35:35;10.00;;;3.93;;
8098;SDS011;4092;47.876;9.372;2022-07-23T03:38:02;4.40;;;3.63;;
8098;SDS011;4092;47.876;9.372;2022-07-23T03:40:30;9.17;;;4.20;;
8098;SDS011;4092;47.876;9.372;2022-07-23T03:42:57;7.47;;;4.57;;
8098;SDS011;4092;47.876;9.372;2022-07-23T03:45:24;5.77;;;3.33;;
8098;SDS011;4092;47.876;9.372;2022-07-23T03:47:51;5.60;;;3.80;;
8098;SDS011;4092;47.876;9.372;2022-07-23T03:50:19;5.20;;;4.00;;
8098;SDS011;4092;47.876;9.372;2022-07-23T03:52:46;4.70;;;3.60;;
8098;SDS011;4092;47.876;9.372;2022-07-23T03:55:13;4.73;;;3.70;;
8098;SDS011;4092;47.876;9.372;2022-07-23T03:57:42;4.20;;;3.80;;
8098;SDS011;4092;47.876;9.372;2022-07-23T04:00:09;12.00;;;4.40;;
8098;SDS011;4092;47.876;9.372;2022-07-23T04:02:38;10.53;;;4.83;;
8098;SDS011;4092;47.876;9.372;2022-07-23T04:05:05;6.77;;;4.53;;
8098;SDS011;4092;47.876;9.372;2022-07-23T04:07:33;6.10;;;5.07;;
8098;SDS011;4092;47.876;9.372;2022-07-23T04:10:00;10.10;;;4.07;;
8098;SDS011;4092;47.876;9.372;2022-07-23T04:12:27;5.87;;;4.50;;
8098;SDS011;4092;47.876;9.372;2022-07-23T04:14:56;5.97;;;4.17;;
8098;SDS011;4092;47.876;9.372;2022-07-23T04:17:23;13.80;;;5.00;;
8098;SDS011;4092;47.876;9.372;2022-07-23T04:19:50;7.90;;;4.47;;
8098;SDS011;4092;47.876;9.372;2022-07-23T04:22:17;8.87;;;5.03;;
8098;SDS011;4092;47.876;9.372;2022-07-23T04:24:44;8.23;;;5.77;;
8098;SDS011;4092;47.876;9.372;2022-07-23T04:27:11;7.50;;;4.07;;
8098;SDS011;4092;47.876;9.372;2022-07-23T04:29:38;7.40;;;4.20;;
8098;SDS011;4092;47.876;9.372;2022-07-23T04:32:07;7.63;;;4.70;;
8098;SDS011;4092;47.876;9.372;2022-07-23T04:34:34;7.60;;;4.17;;
8098;SDS011;4092;47.876;9.372;2022-07-23T04:37:03;12.43;;;4.83;;
8098;SDS011;4092;47.876;9.372;2022-07-23T04:39:33;9.70;;;4.73;;
8098;SDS011;4092;47.876;9.372;2022-07-23T04:42:00;6.27;;;4.20;;
8098;SDS011;4092;47.876;9.372;2022-07-23T04:44:27;8.03;;;4.93;;
8098;SDS011;4092;47.876;9.372;2022-07-23T04:46:54;6.40;;;4.33;;
8098;SDS011;4092;47.876;9.372;2022-07-23T04:49:22;7.63;;;4.90;;
8098;SDS011;4092;47.876;9.372;2022-07-23T04:51:49;11.93;;;5.43;;
8098;SDS011;4092;47.876;9.372;2022-07-23T04:54:16;5.80;;;4.30;;
8098;SDS011;4092;47.876;9.372;2022-07-23T04:56:43;7.67;;;4.93;;
8098;SDS011;4092;47.876;9.372;2022-07-23T04:59:11;9.27;;;5.17;;
8098;SDS011;4092;47.876;9.372;2022-07-23T05:01:38;9.33;;;5.60;;
8098;SDS011;4092;47.876;9.372;2022-07-23T05:04:06;6.90;;;5.17;;
8098;SDS011;4092;47.876;9.372;2022-07-23T05:06:35;8.07;;;4.70;;
8098;SDS011;4092;47.876;9.372;2022-07-23T05:09:02;9.50;;;5.83;;
8098;SDS011;4092;47.876;9.372;2022-07-23T05:11:29;9.37;;;5.23;;
8098;SDS011;4092;47.876;9.372;2022-07-23T05:13:56;8.47;;;4.77;;
8098;SDS011;4092;47.876;9.372;2022-07-23T05:16:23;5.87;;;5.23;;
8098;SDS011;4092;47.876;9.372;2022-07-23T05:18:50;7.10;;;5.00;;
8098;SDS011;4092;47.876;9.372;2022-07-23T05:21:19;8.97;;;5.23;;
8098;SDS011;4092;47.876;9.372;2022-07-23T05:23:47;6.87;;;5.20;;
8098;SDS011;4092;47.876;9.372;2022-07-23T05:26:14;6.40;;;4.50;;
8098;SDS011;4092;47.876;9.372;2022-07-23T05:28:41;7.80;;;5.83;;
8098;SDS011;4092;47.876;9.372;2022-07-23T05:31:08;8.80;;;5.93;;
8098;SDS011;4092;47.876;9.372;2022-07-23T05:33:35;10.80;;;5.03;;
8098;SDS011;4092;47.876;9.372;2022-07-23T05:36:03;6.00;;;5.23;;
8098;SDS011;4092;47.876;9.372;2022-07-23T05:38:31;8.20;;;5.03;;
8098;SDS011;4092;47.876;9.372;2022-07-23T05:41:00;7.20;;;4.90;;
8098;SDS011;4092;47.876;9.372;2022-07-23T05:43:28;5.60;;;5.10;;
8098;SDS011;4092;47.876;9.372;2022-07-23T05:45:55;11.17;;;5.40;;
8098;SDS011;4092;47.876;9.372;2022-07-23T05:48:22;5.67;;;4.43;;
8098;SDS011;4092;47.876;9.372;2022-07-23T05:50:49;6.90;;;4.70;;
8098;SDS011;4092;47.876;9.372;2022-07-23T05:53:16;7.50;;;4.77;;
8098;SDS011;4092;47.876;9.372;2022-07-23T05:55:43;10.93;;;4.80;;
8098;SDS011;4092;47.876;9.372;2022-07-23T05:58:12;10.80;;;6.23;;
8098;SDS011;4092;47.876;9.372;2022-07-23T06:00:39;5.53;;;4.00;;
8098;SDS011;4092;47.876;9.372;2022-07-23T06:03:06;4.77;;;4.23;;
8098;SDS011;4092;47.876;9.372;2022-07-23T06:05:33;4.90;;;3.80;;
8098;SDS011;4092;47.876;9.372;2022-07-23T06:08:00;6.23;;;4.07;;
8098;SDS011;4092;47.876;9.372;2022-07-23T06:10:28;6.00;;;4.20;;
8098;SDS011;4092;47.876;9.372;2022-07-23T06:12:55;4.93;;;3.80;;
8098;SDS011;4092;47.876;9.372;2022-07-23T06:15:23;4.93;;;3.63;;
8098;SDS011;4092;47.876;9.372;2022-07-23T06:17:50;5.90;;;4.17;;
8098;SDS011;4092;47.876;9.372;2022-07-23T06:20:17;6.37;;;4.60;;
8098;SDS011;4092;47.876;9.372;2022-07-23T06:22:44;6.97;;;4.00;;
8098;SDS011;4092;47.876;9.372;2022-07-23T06:25:11;6.00;;;3.57;;
8098;SDS011;4092;47.876;9.372;2022-07-23T06:27:38;7.80;;;4.63;;
8098;SDS011;4092;47.876;9.372;2022-07-23T06:30:06;5.63;;;4.60;;
8098;SDS011;4092;47.876;9.372;2022-07-23T06:32:36;6.60;;;4.80;;
8098;SDS011;4092;47.876;9.372;2022-07-23T06:35:04;5.00;;;3.77;;
8098;SDS011;4092;47.876;9.372;2022-07-23T06:37:31;6.20;;;4.30;;
8098;SDS011;4092;47.876;9.372;2022-07-23T06:39:58;4.83;;;4.13;;
8098;SDS011;4092;47.876;9.372;2022-07-23T06:42:25;4.40;;;3.33;;
8098;SDS011;4092;47.876;9.372;2022-07-23T06:44:52;5.33;;;4.37;;
8098;SDS011;4092;47.876;9.372;2022-07-23T06:47:19;4.70;;;3.90;;
8098;SDS011;4092;47.876;9.372;2022-07-23T06:49:48;5.90;;;3.20;;
8098;SDS011;4092;47.876;9.372;2022-07-23T06:52:18;4.23;;;3.50;;
8098;SDS011;4092;47.876;9.372;2022-07-23T06:54:45;5.73;;;3.33;;
8098;SDS011;4092;47.876;9.372;2022-07-23T06:57:12;6.63;;;4.00;;
8098;SDS011;4092;47.876;9.372;2022-07-23T06:59:39;5.17;;;3.33;;
8098;SDS011;4092;47.876;9.372;2022-07-23T07:02:06;5.13;;;3.63;;
8098;SDS011;4092;47.876;9.372;2022-07-23T07:04:33;9.13;;;5.67;;
8098;SDS011;4092;47.876;9.372;2022-07-23T07:07:02;5.40;;;4.13;;
8098;SDS011;4092;47.876;9.372;2022-07-23T07:09:29;7.90;;;4.37;;
8098;SDS011;4092;47.876;9.372;2022-07-23T07:11:56;5.23;;;4.40;;
8098;SDS011;4092;47.876;9.372;2022-07-23T07:14:23;9.40;;;4.43;;
8098;SDS011;4092;47.876;9.372;2022-07-23T07:16:50;5.17;;;4.13;;
8098;SDS011;4092;47.876;9.372;2022-07-23T07:19:17;8.67;;;5.63;;
8098;SDS011;4092;47.876;9.372;2022-07-23T07:21:44;5.77;;;3.93;;
8098;SDS011;4092;47.876;9.372;2022-07-23T07:24:12;7.13;;;5.03;;
8098;SDS011;4092;47.876;9.372;2022-07-23T07:26:42;5.73;;;5.13;;
8098;SDS011;4092;47.876;9.372;2022-07-23T07:29:09;8.17;;;4.53;;
8098;SDS011;4092;47.876;9.372;2022-07-23T07:31:36;6.20;;;4.67;;
8098;SDS011;4092;47.876;9.372;2022-07-23T07:34:03;8.93;;;4.60;;
8098;SDS011;4092;47.876;9.372;2022-07-23T07:36:30;7.37;;;5.10;;
8098;SDS011;4092;47.876;9.372;2022-07-23T07:38:57;7.20;;;4.50;;
8098;SDS011;4092;47.876;9.372;2022-07-23T07:41:26;9.00;;;5.30;;
8098;SDS011;4092;47.876;9.372;2022-07-23T07:43:56;7.23;;;4.57;;
8098;SDS011;4092;47.876;9.372;2022-07-23T07:46:23;5.67;;;4.17;;
8098;SDS011;4092;47.876;9.372;2022-07-23T07:48:52;7.37;;;4.87;;
8098;SDS011;4092;47.876;9.372;2022-07-23T07:51:19;6.37;;;3.90;;
8098;SDS011;4092;47.876;9.372;2022-07-23T07:53:46;5.20;;;3.90;;
8098;SDS011;4092;47.876;9.372;2022-07-23T07:56:13;7.07;;;4.43;;
8098;SDS011;4092;47.876;9.372;2022-07-23T07:58:42;7.77;;;4.50;;
8098;SDS011;4092;47.876;9.372;2022-07-23T08:01:09;7.60;;;4.40;;
8098;SDS011;4092;47.876;9.372;2022-07-23T08:03:36;6.53;;;4.93;;
8098;SDS011;4092;47.876;9.372;2022-07-23T08:06:03;6.80;;;4.57;;
8098;SDS011;4092;47.876;9.372;2022-07-23T08:08:30;7.43;;;5.27;;
8098;SDS011;4092;47.876;9.372;2022-07-23T08:10:57;14.10;;;5.10;;
8098;SDS011;4092;47.876;9.372;2022-07-23T08:13:24;8.40;;;5.47;;
8098;SDS011;4092;47.876;9.372;2022-07-23T08:15:53;7.00;;;5.13;;
8098;SDS011;4092;47.876;9.372;2022-07-23T08:18:20;8.37;;;6.13;;
8098;SDS011;4092;47.876;9.372;2022-07-23T08:20:47;6.63;;;5.27;;
8098;SDS011;4092;47.876;9.372;2022-07-23T08:23:14;7.33;;;4.30;;
8098;SDS011;4092;47.876;9.372;2022-07-23T08:25:44;6.03;;;4.77;;
8098;SDS011;4092;47.876;9.372;2022-07-23T08:28:12;5.97;;;4.27;;
8098;SDS011;4092;47.876;9.372;2022-07-23T08:30:41;7.40;;;5.00;;
8098;SDS011;4092;47.876;9.372;2022-07-23T08:33:11;9.47;;;6.90;;
8098;SDS011;4092;47.876;9.372;2022-07-23T08:35:40;8.23;;;5.20;;
8098;SDS011;4092;47.876;9.372;2022-07-23T08:38:10;6.40;;;5.33;;
8098;SDS011;4092;47.876;9.372;2022-07-23T08:40:38;8.93;;;5.47;;
8098;SDS011;4092;47.876;9.372;2022-07-23T08:43:07;12.70;;;7.10;;
8098;SDS011;4092;47.876;9.372;2022-07-23T08:45:35;14.20;;;6.80;;
8098;SDS011;4092;47.876;9.372;2022-07-23T08:48:05;9.03;;;5.70;;
8098;SDS011;4092;47.876;9.372;2022-07-23T08:50:36;6.70;;;4.90;;
8098;SDS011;4092;47.876;9.372;2022-07-23T08:53:05;9.10;;;6.43;;
8098;SDS011;4092;47.876;9.372;2022-07-23T08:55:34;7.87;;;5.80;;
8098;SDS011;4092;47.876;9.372;2022-07-23T08:58:01;9.90;;;5.63;;
8098;SDS011;4092;47.876;9.372;2022-07-23T09:00:28;9.60;;;6.60;;
8098;SDS011;4092;47.876;9.372;2022-07-23T09:02:55;6.80;;;4.50;;
8098;SDS011;4092;47.876;9.372;2022-07-23T09:05:23;6.93;;;4.80;;
8098;SDS011;4092;47.876;9.372;2022-07-23T09:08:11;6.57;;;4.90;;
8098;SDS011;4092;47.876;9.372;2022-07-23T09:10:43;7.83;;;5.93;;
8098;SDS011;4092;47.876;9.372;2022-07-23T09:13:25;11.17;;;5.97;;
8098;SDS011;4092;47.876;9.372;2022-07-23T09:15:54;7.17;;;4.43;;
8098;SDS011;4092;47.876;9.372;2022-07-23T09:18:29;9.43;;;6.40;;
8098;SDS011;4092;47.876;9.372;2022-07-23T09:21:18;6.20;;;4.40;;
8098;SDS011;4092;47.876;9.372;2022-07-23T09:23:51;5.77;;;4.90;;
8098;SDS011;4092;47.876;9.372;2022-07-23T09:26:24;4.73;;;4.30;;
8098;SDS011;4092;47.876;9.372;2022-07-23T09:28:59;7.00;;;5.10;;
8098;SDS011;4092;47.876;9.372;2022-07-23T09:31:33;7.00;;;5.50;;
8098;SDS011;4092;47.876;9.372;2022-07-23T09:34:08;8.27;;;5.60;;
8098;SDS011;4092;47.876;9.372;2022-07-23T09:36:40;9.80;;;5.97;;
8098;SDS011;4092;47.876;9.372;2022-07-23T09:39:10;9.07;;;5.47;;
8098;SDS011;4092;47.876;9.372;2022-07-23T09:41:38;7.60;;;5.53;;
8098;SDS011;4092;47.876;9.372;2022-07-23T09:44:11;7.30;;;4.60;;
8098;SDS011;4092;47.876;9.372;2022-07-23T09:46:41;6.80;;;5.13;;
8098;SDS011;4092;47.876;9.372;2022-07-23T09:49:13;7.80;;;5.77;;
8098;SDS011;4092;47.876;9.372;2022-07-23T09:51:45;6.20;;;5.23;;
8098;SDS011;4092;47.876;9.372;2022-07-23T09:54:22;6.33;;;5.00;;
8098;SDS011;4092;47.876;9.372;2022-07-23T09:56:52;8.63;;;5.67;;
8098;SDS011;4092;47.876;9.372;2022-07-23T09:59:22;6.40;;;5.27;;
8098;SDS011;4092;47.876;9.372;2022-07-23T10:01:51;8.60;;;5.40;;
8098;SDS011;4092;47.876;9.372;2022-07-23T10:04:20;8.30;;;5.40;;
8098;SDS011;4092;47.876;9.372;2022-07-23T10:06:48;8.17;;;4.93;;
8098;SDS011;4092;47.876;9.372;2022-07-23T10:09:22;10.87;;;5.90;;
8098;SDS011;4092;47.876;9.372;2022-07-23T10:11:52;9.27;;;5.93;;
8098;SDS011;4092;47.876;9.372;2022-07-23T10:14:24;8.90;;;5.83;;
8098;SDS011;4092;47.876;9.372;2022-07-23T10:16:55;12.93;;;5.87;;
8098;SDS011;4092;47.876;9.372;2022-07-23T10:19:22;9.73;;;5.20;;
8098;SDS011;4092;47.876;9.372;2022-07-23T10:21:50;8.30;;;5.50;;
8098;SDS011;4092;47.876;9.372;2022-07-23T10:24:24;9.47;;;5.90;;
8098;SDS011;4092;47.876;9.372;2022-07-23T10:27:20;7.00;;;4.97;;
8098;SDS011;4092;47.876;9.372;2022-07-23T10:30:03;9.73;;;6.00;;
8098;SDS011;4092;47.876;9.372;2022-07-23T10:32:37;10.50;;;5.67;;
8098;SDS011;4092;47.876;9.372;2022-07-23T10:35:10;10.40;;;5.37;;
8098;SDS011;4092;47.876;9.372;2022-07-23T10:37:46;8.37;;;5.33;;
8098;SDS011;4092;47.876;9.372;2022-07-23T10:40:18;8.37;;;6.03;;
8098;SDS011;4092;47.876;9.372;2022-07-23T10:42:48;6.97;;;5.00;;
8098;SDS011;4092;47.876;9.372;2022-07-23T10:45:24;8.90;;;5.70;;
8098;SDS011;4092;47.876;9.372;2022-07-23T10:47:52;10.10;;;5.80;;
8098;SDS011;4092;47.876;9.372;2022-07-23T10:50:20;10.90;;;5.83;;
8098;SDS011;4092;47.876;9.372;2022-07-23T10:55:43;9.40;;;6.00;;
8098;SDS011;4092;47.876;9.372;2022-07-23T10:58:17;9.40;;;5.60;;
8098;SDS011;4092;47.876;9.372;2022-07-23T11:00:49;8.17;;;6.30;;
8098;SDS011;4092;47.876;9.372;2022-07-23T11:06:05;9.33;;;5.33;;
8098;SDS011;4092;47.876;9.372;2022-07-23T11:08:32;6.40;;;4.70;;
8098;SDS011;4092;47.876;9.372;2022-07-23T11:11:10;11.23;;;6.70;;
8098;SDS011;4092;47.876;9.372;2022-07-23T11:16:24;6.77;;;5.53;;
8098;SDS011;4092;47.876;9.372;2022-07-23T11:18:53;9.90;;;6.40;;
8098;SDS011;4092;47.876;9.372;2022-07-23T11:24:23;7.93;;;5.03;;
8098;SDS011;4092;47.876;9.372;2022-07-23T11:26:59;9.00;;;5.70;;
8098;SDS011;4092;47.876;9.372;2022-07-23T11:29:42;10.40;;;6.07;;
8098;SDS011;4092;47.876;9.372;2022-07-23T11:32:23;8.60;;;6.30;;
8098;SDS011;4092;47.876;9.372;2022-07-23T11:34:55;8.00;;;4.90;;
8098;SDS011;4092;47.876;9.372;2022-07-23T11:37:36;10.40;;;5.87;;
8098;SDS011;4092;47.876;9.372;2022-07-23T11:40:06;11.57;;;5.90;;
8098;SDS011;4092;47.876;9.372;2022-07-23T11:42:37;12.33;;;7.50;;
8098;SDS011;4092;47.876;9.372;2022-07-23T11:45:06;11.23;;;6.17;;
8098;SDS011;4092;47.876;9.372;2022-07-23T11:47:34;9.00;;;6.80;;
8098;SDS011;4092;47.876;9.372;2022-07-23T11:50:03;12.70;;;7.07;;
8098;SDS011;4092;47.876;9.372;2022-07-23T11:52:32;11.47;;;6.50;;
8098;SDS011;4092;47.876;9.372;2022-07-23T11:55:00;10.40;;;6.80;;
8098;SDS011;4092;47.876;9.372;2022-07-23T11:57:29;9.33;;;5.67;;
8098;SDS011;4092;47.876;9.372;2022-07-23T12:00:03;8.10;;;5.87;;
8098;SDS011;4092;47.876;9.372;2022-07-23T12:02:35;11.83;;;6.73;;
8098;SDS011;4092;47.876;9.372;2022-07-23T12:05:02;6.70;;;5.63;;
8098;SDS011;4092;47.876;9.372;2022-07-23T12:07:30;10.97;;;7.07;;
8098;SDS011;4092;47.876;9.372;2022-07-23T12:09:59;9.27;;;6.57;;
8098;SDS011;4092;47.876;9.372;2022-07-23T12:12:27;10.53;;;6.13;;
8098;SDS011;4092;47.876;9.372;2022-07-23T12:15:04;15.10;;;7.70;;
8098;SDS011;4092;47.876;9.372;2022-07-23T12:17:33;9.73;;;6.60;;
8098;SDS011;4092;47.876;9.372;2022-07-23T12:20:02;9.07;;;7.23;;
8098;SDS011;4092;47.876;9.372;2022-07-23T12:22:33;9.83;;;5.93;;
8098;SDS011;4092;47.876;9.372;2022-07-23T12:25:03;9.83;;;6.93;;
8098;SDS011;4092;47.876;9.372;2022-07-23T12:27:32;10.10;;;6.00;;
8098;SDS011;4092;47.876;9.372;2022-07-23T12:29:59;11.43;;;6.07;;
8098;SDS011;4092;47.876;9.372;2022-07-23T12:32:53;10.50;;;6.77;;
8098;SDS011;4092;47.876;9.372;2022-07-23T12:35:23;10.70;;;6.33;;
8098;SDS011;4092;47.876;9.372;2022-07-23T12:38:02;10.50;;;6.33;;
8098;SDS011;4092;47.876;9.372;2022-07-23T12:40:31;11.33;;;7.13;;
8098;SDS011;4092;47.876;9.372;2022-07-23T12:43:01;8.70;;;6.97;;
8098;SDS011;4092;47.876;9.372;2022-07-23T12:45:46;8.40;;;5.67;;
8098;SDS011;4092;47.876;9.372;2022-07-23T12:48:17;12.03;;;7.53;;
8098;SDS011;4092;47.876;9.372;2022-07-23T12:50:49;6.00;;;5.40;;
8098;SDS011;4092;47.876;9.372;2022-07-23T12:53:19;9.37;;;5.40;;
8098;SDS011;4092;47.876;9.372;2022-07-23T12:55:48;12.17;;;6.20;;
8098;SDS011;4092;47.876;9.372;2022-07-23T12:58:17;10.83;;;6.30;;
8098;SDS011;4092;47.876;9.372;2022-07-23T13:00:49;8.67;;;6.27;;
8098;SDS011;4092;47.876;9.372;2022-07-23T13:03:26;10.23;;;6.83;;
8098;SDS011;4092;47.876;9.372;2022-07-23T13:05:56;10.53;;;6.27;;
8098;SDS011;4092;47.876;9.372;2022-07-23T13:08:24;11.83;;;6.37;;
8098;SDS011;4092;47.876;9.372;2022-07-23T13:10:53;8.97;;;6.90;;
8098;SDS011;4092;47.876;9.372;2022-07-23T13:13:21;6.83;;;5.50;;
8098;SDS011;4092;47.876;9.372;2022-07-23T13:15:49;8.30;;;5.93;;
8098;SDS011;4092;47.876;9.372;2022-07-23T13:18:16;7.57;;;5.67;;
8098;SDS011;4092;47.876;9.372;2022-07-23T13:20:45;8.07;;;5.67;;
8098;SDS011;4092;47.876;9.372;2022-07-23T13:23:14;6.17;;;5.00;;
8098;SDS011;4092;47.876;9.372;2022-07-23T13:25:42;7.97;;;6.43;;
8098;SDS011;4092;47.876;9.372;2022-07-23T13:28:09;10.10;;;5.23;;
8098;SDS011;4092;47.876;9.372;2022-07-23T13:30:36;6.60;;;5.47;;
8098;SDS011;4092;47.876;9.372;2022-07-23T13:33:04;9.00;;;6.30;;
8098;SDS011;4092;47.876;9.372;2022-07-23T13:35:31;8.80;;;5.27;;
8098;SDS011;4092;47.876;9.372;2022-07-23T13:38:01;12.30;;;8.03;;
8098;SDS011;4092;47.876;9.372;2022-07-23T13:40:28;7.60;;;5.90;;
8098;SDS011;4092;47.876;9.372;2022-07-23T13:42:55;9.30;;;6.10;;
8098;SDS011;4092;47.876;9.372;2022-07-23T13:45:22;9.00;;;6.33;;
8098;SDS011;4092;47.876;9.372;2022-07-23T13:47:49;9.13;;;5.73;;
8098;SDS011;4092;47.876;9.372;2022-07-23T13:50:16;10.40;;;5.73;;
8098;SDS011;4092;47.876;9.372;2022-07-23T13:52:44;7.07;;;5.73;;
8098;SDS011;4092;47.876;9.372;2022-07-23T13:55:12;6.20;;;5.60;;
8098;SDS011;4092;47.876;9.372;2022-07-23T13:57:39;7.50;;;5.80;;
8098;SDS011;4092;47.876;9.372;2022-07-23T14:00:07;6.70;;;5.37;;
8098;SDS011;4092;47.876;9.372;2022-07-23T14:02:36;6.30;;;5.20;;
8098;SDS011;4092;47.876;9.372;2022-07-23T14:05:04;9.57;;;6.10;;
8098;SDS011;4092;47.876;9.372;2022-07-23T14:07:32;11.60;;;6.93;;
8098;SDS011;4092;47.876;9.372;2022-07-23T14:10:00;5.97;;;4.80;;
8098;SDS011;4092;47.876;9.372;2022-07-23T14:12:28;8.80;;;5.60;;
8098;SDS011;4092;47.876;9.372;2022-07-23T14:14:55;8.40;;;6.00;;
8098;SDS011;4092;47.876;9.372;2022-07-23T14:17:23;13.83;;;4.70;;
8098;SDS011;4092;47.876;9.372;2022-07-23T14:19:50;6.80;;;5.40;;
8098;SDS011;4092;47.876;9.372;2022-07-23T14:22:17;6.60;;;5.20;;
8098;SDS011;4092;47.876;9.372;2022-07-23T14:24:44;6.87;;;5.80;;
8098;SDS011;4092;47.876;9.372;2022-07-23T14:27:11;7.90;;;5.93;;
8098;SDS011;4092;47.876;9.372;2022-07-23T14:29:40;7.90;;;6.00;;
8098;SDS011;4092;47.876;9.372;2022-07-23T14:32:07;8.47;;;6.30;;
8098;SDS011;4092;47.876;9.372;2022-07-23T14:34:34;10.33;;;6.50;;
8098;SDS011;4092;47.876;9.372;2022-07-23T14:37:02;11.57;;;6.00;;
8098;SDS011;4092;47.876;9.372;2022-07-23T14:39:29;14.70;;;6.83;;
8098;SDS011;4092;47.876;9.372;2022-07-23T14:41:56;6.37;;;5.43;;
8098;SDS011;4092;47.876;9.372;2022-07-23T14:44:23;8.80;;;5.40;;
8098;SDS011;4092;47.876;9.372;2022-07-23T14:46:51;9.27;;;6.43;;
8098;SDS011;4092;47.876;9.372;2022-07-23T14:49:19;7.37;;;5.43;;
8098;SDS011;4092;47.876;9.372;2022-07-23T14:51:46;8.27;;;6.30;;
8098;SDS011;4092;47.876;9.372;2022-07-23T14:54:14;7.00;;;6.17;;
8098;SDS011;4092;47.876;9.372;2022-07-23T14:56:41;6.77;;;5.87;;
8098;SDS011;4092;47.876;9.372;2022-07-23T14:59:08;6.67;;;5.97;;
8098;SDS011;4092;47.876;9.372;2022-07-23T15:01:35;8.03;;;5.50;;
8098;SDS011;4092;47.876;9.372;2022-07-23T15:04:04;7.50;;;5.00;;
8098;SDS011;4092;47.876;9.372;2022-07-23T15:06:32;8.20;;;6.17;;
8098;SDS011;4092;47.876;9.372;2022-07-23T15:08:59;13.60;;;6.40;;
8098;SDS011;4092;47.876;9.372;2022-07-23T15:11:26;7.83;;;5.60;;
8098;SDS011;4092;47.876;9.372;2022-07-23T15:13:59;7.83;;;6.40;;
8098;SDS011;4092;47.876;9.372;2022-07-23T15:16:26;7.03;;;5.20;;
8098;SDS011;4092;47.876;9.372;2022-07-23T15:18:53;8.10;;;5.77;;
8098;SDS011;4092;47.876;9.372;2022-07-23T15:21:22;8.10;;;5.17;;
8098;SDS011;4092;47.876;9.372;2022-07-23T15:23:49;9.03;;;6.30;;
8098;SDS011;4092;47.876;9.372;2022-07-23T15:26:16;9.50;;;7.00;;
8098;SDS011;4092;47.876;9.372;2022-07-23T15:28:44;8.20;;;5.30;;
8098;SDS011;4092;47.876;9.372;2022-07-23T15:31:11;8.67;;;5.77;;
8098;SDS011;4092;47.876;9.372;2022-07-23T15:33:38;7.37;;;5.83;;